sensor_id;sensor_type;location;lat;lon;timestamp;P1;durP1;ratioP1;P2;durP2;ratioP2
11228;SDS011;5671;47.936;8.716;2023-06-22T00:01:18;8.53;;;5.17;;
11228;SDS011;5671;47.936;8.716;2023-06-22T00:03:48;11.27;;;5.80;;
11228;SDS011;5671;47.936;8.716;2023-06-22T00:06:15;13.40;;;6.30;;
11228;SDS011;5671;47.936;8.716;2023-06-22T00:08:42;12.13;;;5.67;;
11228;SDS011;5671;47.936;8.716;2023-06-22T00:11:09;15.93;;;5.30;;
11228;SDS011;5671;47.936;8.716;2023-06-22T00:13:37;11.03;;;5.10;;
11228;SDS011;5671;47.936;8.716;2023-06-22T00:16:04;9.90;;;5.27;;
11228;SDS011;5671;47.936;8.716;2023-06-22T00:18:31;12.00;;;5.17;;
11228;SDS011;5671;47.936;8.716;2023-06-22T00:20:58;11.23;;;5.17;;
11228;SDS011;5671;47.936;8.716;2023-06-22T00:23:26;11.90;;;5.60;;
11228;SDS011;5671;47.936;8.716;2023-06-22T00:25:53;14.27;;;5.70;;
11228;SDS011;5671;47.936;8.716;2023-06-22T00:28:19;12.27;;;6.00;;
11228;SDS011;5671;47.936;8.716;2023-06-22T00:30:48;10.93;;;5.20;;
11228;SDS011;5671;47.936;8.716;2023-06-22T00:33:15;10.03;;;5.60;;
11228;SDS011;5671;47.936;8.716;2023-06-22T00:35:42;10.30;;;5.20;;
11228;SDS011;5671;47.936;8.716;2023-06-22T00:38:09;8.97;;;5.27;;
11228;SDS011;5671;47.936;8.716;2023-06-22T00:40:36;11.13;;;5.47;;
11228;SDS011;5671;47.936;8.716;2023-06-22T00:43:03;11.07;;;5.00;;
11228;SDS011;5671;47.936;8.716;2023-06-22T00:45:31;11.50;;;5.43;;
11228;SDS011;5671;47.936;8.716;2023-06-22T00:47:59;13.90;;;6.27;;
11228;SDS011;5671;47.936;8.716;2023-06-22T00:50:27;13.70;;;5.47;;
11228;SDS011;5671;47.936;8.716;2023-06-22T00:53:01;12.90;;;5.53;;
11228;SDS011;5671;47.936;8.716;2023-06-22T00:55:33;11.40;;;5.80;;
11228;SDS011;5671;47.936;8.716;2023-06-22T00:58:02;12.43;;;6.13;;
11228;SDS011;5671;47.936;8.716;2023-06-22T01:00:30;8.47;;;4.83;;
11228;SDS011;5671;47.936;8.716;2023-06-22T01:02:59;13.67;;;5.53;;
11228;SDS011;5671;47.936;8.716;2023-06-22T01:05:27;11.83;;;4.90;;
11228;SDS011;5671;47.936;8.716;2023-06-22T01:07:58;11.20;;;5.10;;
11228;SDS011;5671;47.936;8.716;2023-06-22T01:10:33;10.53;;;5.20;;
11228;SDS011;5671;47.936;8.716;2023-06-22T01:13:07;11.83;;;5.00;;
11228;SDS011;5671;47.936;8.716;2023-06-22T01:15:39;11.90;;;5.87;;
11228;SDS011;5671;47.936;8.716;2023-06-22T01:18:12;12.40;;;6.40;;
11228;SDS011;5671;47.936;8.716;2023-06-22T01:20:40;10.57;;;6.20;;
11228;SDS011;5671;47.936;8.716;2023-06-22T01:23:10;11.00;;;6.53;;
11228;SDS011;5671;47.936;8.716;2023-06-22T01:25:47;11.60;;;6.67;;
11228;SDS011;5671;47.936;8.716;2023-06-22T01:31:17;13.70;;;7.13;;
11228;SDS011;5671;47.936;8.716;2023-06-22T01:33:47;13.70;;;7.30;;
11228;SDS011;5671;47.936;8.716;2023-06-22T01:36:16;15.40;;;7.40;;
11228;SDS011;5671;47.936;8.716;2023-06-22T01:38:44;13.83;;;7.37;;
11228;SDS011;5671;47.936;8.716;2023-06-22T01:41:13;12.10;;;7.30;;
11228;SDS011;5671;47.936;8.716;2023-06-22T01:43:40;12.53;;;7.67;;
11228;SDS011;5671;47.936;8.716;2023-06-22T01:46:08;20.77;;;8.53;;
11228;SDS011;5671;47.936;8.716;2023-06-22T01:48:38;16.67;;;9.00;;
11228;SDS011;5671;47.936;8.716;2023-06-22T01:51:05;13.13;;;7.47;;
11228;SDS011;5671;47.936;8.716;2023-06-22T01:53:32;13.67;;;7.80;;
11228;SDS011;5671;47.936;8.716;2023-06-22T01:55:58;12.73;;;8.17;;
11228;SDS011;5671;47.936;8.716;2023-06-22T01:58:27;10.67;;;8.23;;
11228;SDS011;5671;47.936;8.716;2023-06-22T02:00:56;15.33;;;8.03;;
11228;SDS011;5671;47.936;8.716;2023-06-22T02:03:29;11.50;;;8.20;;
11228;SDS011;5671;47.936;8.716;2023-06-22T02:06:03;16.60;;;8.20;;
11228;SDS011;5671;47.936;8.716;2023-06-22T02:08:35;12.80;;;8.27;;
11228;SDS011;5671;47.936;8.716;2023-06-22T02:11:08;13.93;;;8.40;;
11228;SDS011;5671;47.936;8.716;2023-06-22T02:13:36;12.27;;;8.73;;
11228;SDS011;5671;47.936;8.716;2023-06-22T02:16:07;11.77;;;8.03;;
11228;SDS011;5671;47.936;8.716;2023-06-22T02:18:34;15.60;;;8.27;;
11228;SDS011;5671;47.936;8.716;2023-06-22T02:21:03;17.73;;;8.30;;
11228;SDS011;5671;47.936;8.716;2023-06-22T02:23:30;19.47;;;8.27;;
11228;SDS011;5671;47.936;8.716;2023-06-22T02:25:58;12.70;;;8.07;;
11228;SDS011;5671;47.936;8.716;2023-06-22T02:28:24;11.00;;;7.17;;
11228;SDS011;5671;47.936;8.716;2023-06-22T02:30:51;14.67;;;7.90;;
11228;SDS011;5671;47.936;8.716;2023-06-22T02:33:18;13.63;;;7.47;;
11228;SDS011;5671;47.936;8.716;2023-06-22T02:35:45;14.43;;;7.93;;
11228;SDS011;5671;47.936;8.716;2023-06-22T02:38:15;13.10;;;6.93;;
11228;SDS011;5671;47.936;8.716;2023-06-22T02:40:42;12.80;;;7.40;;
11228;SDS011;5671;47.936;8.716;2023-06-22T02:43:09;16.47;;;7.27;;
11228;SDS011;5671;47.936;8.716;2023-06-22T02:45:36;12.50;;;6.83;;
11228;SDS011;5671;47.936;8.716;2023-06-22T02:48:03;14.97;;;6.80;;
11228;SDS011;5671;47.936;8.716;2023-06-22T02:50:30;14.07;;;7.07;;
11228;SDS011;5671;47.936;8.716;2023-06-22T02:52:57;10.50;;;6.47;;
11228;SDS011;5671;47.936;8.716;2023-06-22T02:55:25;13.43;;;6.60;;
11228;SDS011;5671;47.936;8.716;2023-06-22T02:57:52;10.20;;;6.70;;
11228;SDS011;5671;47.936;8.716;2023-06-22T03:00:19;11.60;;;7.37;;
11228;SDS011;5671;47.936;8.716;2023-06-22T03:02:47;13.00;;;7.40;;
11228;SDS011;5671;47.936;8.716;2023-06-22T03:05:14;12.93;;;6.77;;
11228;SDS011;5671;47.936;8.716;2023-06-22T03:07:43;11.50;;;7.03;;
11228;SDS011;5671;47.936;8.716;2023-06-22T03:10:11;12.73;;;5.67;;
11228;SDS011;5671;47.936;8.716;2023-06-22T03:12:41;10.10;;;6.67;;
11228;SDS011;5671;47.936;8.716;2023-06-22T03:15:10;10.43;;;6.30;;
11228;SDS011;5671;47.936;8.716;2023-06-22T03:17:37;10.27;;;6.53;;
11228;SDS011;5671;47.936;8.716;2023-06-22T03:20:06;10.30;;;6.43;;
11228;SDS011;5671;47.936;8.716;2023-06-22T03:22:35;12.57;;;5.53;;
11228;SDS011;5671;47.936;8.716;2023-06-22T03:25:03;8.33;;;6.20;;
11228;SDS011;5671;47.936;8.716;2023-06-22T03:27:34;11.10;;;6.40;;
11228;SDS011;5671;47.936;8.716;2023-06-22T03:30:03;15.63;;;6.57;;
11228;SDS011;5671;47.936;8.716;2023-06-22T03:32:30;9.83;;;5.73;;
11228;SDS011;5671;47.936;8.716;2023-06-22T03:34:57;14.97;;;5.67;;
11228;SDS011;5671;47.936;8.716;2023-06-22T03:37:24;11.13;;;5.33;;
11228;SDS011;5671;47.936;8.716;2023-06-22T03:39:51;9.47;;;5.03;;
11228;SDS011;5671;47.936;8.716;2023-06-22T03:42:18;7.70;;;4.83;;
11228;SDS011;5671;47.936;8.716;2023-06-22T03:44:45;9.93;;;4.77;;
11228;SDS011;5671;47.936;8.716;2023-06-22T03:47:13;10.03;;;5.00;;
11228;SDS011;5671;47.936;8.716;2023-06-22T03:49:40;13.90;;;5.00;;
11228;SDS011;5671;47.936;8.716;2023-06-22T03:52:07;13.80;;;5.07;;
11228;SDS011;5671;47.936;8.716;2023-06-22T03:54:34;7.57;;;4.70;;
11228;SDS011;5671;47.936;8.716;2023-06-22T03:57:01;10.23;;;4.90;;
11228;SDS011;5671;47.936;8.716;2023-06-22T03:59:28;10.40;;;4.70;;
11228;SDS011;5671;47.936;8.716;2023-06-22T04:01:54;7.23;;;4.50;;
11228;SDS011;5671;47.936;8.716;2023-06-22T04:04:22;8.73;;;4.47;;
11228;SDS011;5671;47.936;8.716;2023-06-22T04:06:49;9.07;;;4.80;;
11228;SDS011;5671;47.936;8.716;2023-06-22T04:09:16;6.37;;;4.53;;
11228;SDS011;5671;47.936;8.716;2023-06-22T04:11:43;12.43;;;5.13;;
11228;SDS011;5671;47.936;8.716;2023-06-22T04:14:10;7.83;;;4.80;;
11228;SDS011;5671;47.936;8.716;2023-06-22T04:16:37;9.80;;;5.40;;
11228;SDS011;5671;47.936;8.716;2023-06-22T04:19:04;6.73;;;4.60;;
11228;SDS011;5671;47.936;8.716;2023-06-22T04:21:32;10.47;;;5.13;;
11228;SDS011;5671;47.936;8.716;2023-06-22T04:23:58;12.00;;;5.23;;
11228;SDS011;5671;47.936;8.716;2023-06-22T04:26:25;13.33;;;5.37;;
11228;SDS011;5671;47.936;8.716;2023-06-22T04:28:52;10.57;;;5.57;;
11228;SDS011;5671;47.936;8.716;2023-06-22T04:31:20;9.20;;;5.00;;
11228;SDS011;5671;47.936;8.716;2023-06-22T04:33:56;10.60;;;5.47;;
11228;SDS011;5671;47.936;8.716;2023-06-22T04:36:31;11.70;;;6.03;;
11228;SDS011;5671;47.936;8.716;2023-06-22T04:39:02;9.43;;;5.80;;
11228;SDS011;5671;47.936;8.716;2023-06-22T04:41:30;6.90;;;5.07;;
11228;SDS011;5671;47.936;8.716;2023-06-22T04:44:07;11.03;;;5.37;;
11228;SDS011;5671;47.936;8.716;2023-06-22T04:46:34;10.67;;;6.37;;
11228;SDS011;5671;47.936;8.716;2023-06-22T04:49:03;13.13;;;6.67;;
11228;SDS011;5671;47.936;8.716;2023-06-22T04:51:37;11.37;;;6.23;;
11228;SDS011;5671;47.936;8.716;2023-06-22T04:54:06;10.33;;;5.77;;
11228;SDS011;5671;47.936;8.716;2023-06-22T04:56:33;15.77;;;5.77;;
11228;SDS011;5671;47.936;8.716;2023-06-22T04:59:00;7.57;;;5.50;;
11228;SDS011;5671;47.936;8.716;2023-06-22T05:01:28;10.83;;;6.10;;
11228;SDS011;5671;47.936;8.716;2023-06-22T05:03:56;7.43;;;5.60;;
11228;SDS011;5671;47.936;8.716;2023-06-22T05:06:25;9.90;;;5.80;;
11228;SDS011;5671;47.936;8.716;2023-06-22T05:08:54;10.10;;;6.60;;
11228;SDS011;5671;47.936;8.716;2023-06-22T05:11:23;12.30;;;6.53;;
11228;SDS011;5671;47.936;8.716;2023-06-22T05:13:50;9.50;;;5.53;;
11228;SDS011;5671;47.936;8.716;2023-06-22T05:16:18;12.63;;;7.20;;
11228;SDS011;5671;47.936;8.716;2023-06-22T05:18:49;10.13;;;7.33;;
11228;SDS011;5671;47.936;8.716;2023-06-22T05:21:16;10.73;;;7.10;;
11228;SDS011;5671;47.936;8.716;2023-06-22T05:23:44;10.80;;;6.70;;
11228;SDS011;5671;47.936;8.716;2023-06-22T05:26:12;13.07;;;7.77;;
11228;SDS011;5671;47.936;8.716;2023-06-22T05:28:39;12.60;;;7.80;;
11228;SDS011;5671;47.936;8.716;2023-06-22T05:31:05;13.70;;;6.93;;
11228;SDS011;5671;47.936;8.716;2023-06-22T05:33:32;11.47;;;6.47;;
11228;SDS011;5671;47.936;8.716;2023-06-22T05:35:59;13.20;;;7.20;;
11228;SDS011;5671;47.936;8.716;2023-06-22T05:38:26;10.67;;;7.47;;
11228;SDS011;5671;47.936;8.716;2023-06-22T05:40:53;12.57;;;8.13;;
11228;SDS011;5671;47.936;8.716;2023-06-22T05:43:21;17.13;;;9.67;;
11228;SDS011;5671;47.936;8.716;2023-06-22T05:45:48;14.87;;;9.20;;
11228;SDS011;5671;47.936;8.716;2023-06-22T05:48:14;12.83;;;7.87;;
11228;SDS011;5671;47.936;8.716;2023-06-22T05:50:49;14.20;;;8.50;;
11228;SDS011;5671;47.936;8.716;2023-06-22T05:53:16;15.40;;;9.37;;
11228;SDS011;5671;47.936;8.716;2023-06-22T05:55:42;15.47;;;9.07;;
11228;SDS011;5671;47.936;8.716;2023-06-22T05:58:09;18.83;;;8.50;;
11228;SDS011;5671;47.936;8.716;2023-06-22T06:00:39;14.53;;;7.33;;
11228;SDS011;5671;47.936;8.716;2023-06-22T06:03:06;16.87;;;7.37;;
11228;SDS011;5671;47.936;8.716;2023-06-22T06:05:34;10.73;;;7.33;;
11228;SDS011;5671;47.936;8.716;2023-06-22T06:08:01;10.47;;;6.83;;
11228;SDS011;5671;47.936;8.716;2023-06-22T06:10:30;10.77;;;6.20;;
11228;SDS011;5671;47.936;8.716;2023-06-22T06:12:57;14.13;;;6.67;;
11228;SDS011;5671;47.936;8.716;2023-06-22T06:15:27;10.20;;;5.90;;
11228;SDS011;5671;47.936;8.716;2023-06-22T06:17:55;11.13;;;6.07;;
11228;SDS011;5671;47.936;8.716;2023-06-22T06:20:22;10.63;;;5.60;;
11228;SDS011;5671;47.936;8.716;2023-06-22T06:22:50;10.07;;;5.67;;
11228;SDS011;5671;47.936;8.716;2023-06-22T06:25:17;9.40;;;6.13;;
11228;SDS011;5671;47.936;8.716;2023-06-22T06:27:45;10.57;;;4.93;;
11228;SDS011;5671;47.936;8.716;2023-06-22T06:30:13;11.00;;;5.60;;
11228;SDS011;5671;47.936;8.716;2023-06-22T06:32:41;9.10;;;5.47;;
11228;SDS011;5671;47.936;8.716;2023-06-22T06:35:10;10.67;;;5.73;;
11228;SDS011;5671;47.936;8.716;2023-06-22T06:37:39;9.90;;;5.70;;
11228;SDS011;5671;47.936;8.716;2023-06-22T06:40:08;9.53;;;5.60;;
11228;SDS011;5671;47.936;8.716;2023-06-22T06:42:36;12.83;;;6.17;;
11228;SDS011;5671;47.936;8.716;2023-06-22T06:45:05;9.87;;;5.60;;
11228;SDS011;5671;47.936;8.716;2023-06-22T06:47:33;14.23;;;5.57;;
11228;SDS011;5671;47.936;8.716;2023-06-22T06:49:59;14.03;;;5.37;;
11228;SDS011;5671;47.936;8.716;2023-06-22T06:52:28;12.50;;;5.87;;
11228;SDS011;5671;47.936;8.716;2023-06-22T06:54:54;9.37;;;5.53;;
11228;SDS011;5671;47.936;8.716;2023-06-22T06:57:21;12.20;;;5.70;;
11228;SDS011;5671;47.936;8.716;2023-06-22T06:59:48;8.80;;;5.63;;
11228;SDS011;5671;47.936;8.716;2023-06-22T07:02:15;8.73;;;5.50;;
11228;SDS011;5671;47.936;8.716;2023-06-22T07:04:42;9.37;;;5.10;;
11228;SDS011;5671;47.936;8.716;2023-06-22T07:07:09;8.00;;;5.70;;
11228;SDS011;5671;47.936;8.716;2023-06-22T07:09:37;10.53;;;5.47;;
11228;SDS011;5671;47.936;8.716;2023-06-22T07:12:05;12.07;;;5.67;;
11228;SDS011;5671;47.936;8.716;2023-06-22T07:14:32;7.63;;;5.43;;
11228;SDS011;5671;47.936;8.716;2023-06-22T07:16:59;11.83;;;5.77;;
11228;SDS011;5671;47.936;8.716;2023-06-22T07:19:26;8.10;;;4.90;;
11228;SDS011;5671;47.936;8.716;2023-06-22T07:21:53;8.43;;;5.07;;
11228;SDS011;5671;47.936;8.716;2023-06-22T07:24:20;11.20;;;5.60;;
11228;SDS011;5671;47.936;8.716;2023-06-22T07:26:48;11.97;;;4.73;;
11228;SDS011;5671;47.936;8.716;2023-06-22T07:29:16;6.93;;;5.00;;
11228;SDS011;5671;47.936;8.716;2023-06-22T07:31:43;8.13;;;4.90;;
11228;SDS011;5671;47.936;8.716;2023-06-22T07:34:10;8.30;;;4.97;;
11228;SDS011;5671;47.936;8.716;2023-06-22T07:36:37;9.57;;;5.63;;
11228;SDS011;5671;47.936;8.716;2023-06-22T07:39:04;8.30;;;5.20;;
11228;SDS011;5671;47.936;8.716;2023-06-22T07:41:31;8.07;;;5.27;;
11228;SDS011;5671;47.936;8.716;2023-06-22T07:43:59;10.93;;;5.17;;
11228;SDS011;5671;47.936;8.716;2023-06-22T07:46:26;9.23;;;5.33;;
11228;SDS011;5671;47.936;8.716;2023-06-22T07:48:55;8.30;;;4.80;;
11228;SDS011;5671;47.936;8.716;2023-06-22T07:51:22;12.33;;;5.13;;
11228;SDS011;5671;47.936;8.716;2023-06-22T07:53:49;12.33;;;5.43;;
11228;SDS011;5671;47.936;8.716;2023-06-22T07:56:15;10.53;;;5.40;;
11228;SDS011;5671;47.936;8.716;2023-06-22T07:58:44;11.27;;;5.27;;
11228;SDS011;5671;47.936;8.716;2023-06-22T08:01:13;11.93;;;5.97;;
11228;SDS011;5671;47.936;8.716;2023-06-22T08:03:45;13.43;;;5.97;;
11228;SDS011;5671;47.936;8.716;2023-06-22T08:06:13;11.37;;;6.57;;
11228;SDS011;5671;47.936;8.716;2023-06-22T08:08:41;15.70;;;6.60;;
11228;SDS011;5671;47.936;8.716;2023-06-22T08:11:08;12.77;;;7.50;;
11228;SDS011;5671;47.936;8.716;2023-06-22T08:13:35;11.23;;;7.30;;
11228;SDS011;5671;47.936;8.716;2023-06-22T08:16:02;16.60;;;7.17;;
11228;SDS011;5671;47.936;8.716;2023-06-22T08:18:31;13.03;;;6.07;;
11228;SDS011;5671;47.936;8.716;2023-06-22T08:20:57;9.50;;;6.70;;
11228;SDS011;5671;47.936;8.716;2023-06-22T08:23:24;14.03;;;6.93;;
11228;SDS011;5671;47.936;8.716;2023-06-22T08:25:53;12.30;;;7.17;;
11228;SDS011;5671;47.936;8.716;2023-06-22T08:28:20;13.80;;;8.33;;
11228;SDS011;5671;47.936;8.716;2023-06-22T08:30:46;11.93;;;7.10;;
11228;SDS011;5671;47.936;8.716;2023-06-22T08:33:13;12.27;;;7.40;;
11228;SDS011;5671;47.936;8.716;2023-06-22T08:35:41;12.90;;;7.00;;
11228;SDS011;5671;47.936;8.716;2023-06-22T08:38:08;14.87;;;7.53;;
11228;SDS011;5671;47.936;8.716;2023-06-22T08:40:35;9.97;;;6.07;;
11228;SDS011;5671;47.936;8.716;2023-06-22T08:43:02;13.50;;;6.67;;
11228;SDS011;5671;47.936;8.716;2023-06-22T08:45:30;12.37;;;6.80;;
11228;SDS011;5671;47.936;8.716;2023-06-22T08:47:57;9.30;;;6.40;;
11228;SDS011;5671;47.936;8.716;2023-06-22T08:50:24;13.87;;;6.70;;
11228;SDS011;5671;47.936;8.716;2023-06-22T08:52:52;8.50;;;6.23;;
11228;SDS011;5671;47.936;8.716;2023-06-22T08:55:19;14.50;;;6.50;;
11228;SDS011;5671;47.936;8.716;2023-06-22T08:57:48;11.57;;;6.67;;
11228;SDS011;5671;47.936;8.716;2023-06-22T09:00:16;10.17;;;5.83;;
11228;SDS011;5671;47.936;8.716;2023-06-22T09:02:45;12.53;;;5.97;;
11228;SDS011;5671;47.936;8.716;2023-06-22T09:05:12;14.43;;;5.57;;
11228;SDS011;5671;47.936;8.716;2023-06-22T09:07:39;16.07;;;6.40;;
11228;SDS011;5671;47.936;8.716;2023-06-22T09:10:08;11.23;;;5.57;;
11228;SDS011;5671;47.936;8.716;2023-06-22T09:12:35;12.53;;;6.07;;
11228;SDS011;5671;47.936;8.716;2023-06-22T09:15:15;16.90;;;5.80;;
11228;SDS011;5671;47.936;8.716;2023-06-22T09:17:42;12.03;;;5.80;;
11228;SDS011;5671;47.936;8.716;2023-06-22T09:20:11;12.03;;;5.97;;
11228;SDS011;5671;47.936;8.716;2023-06-22T09:22:38;12.70;;;5.57;;
11228;SDS011;5671;47.936;8.716;2023-06-22T09:25:05;13.23;;;6.00;;
11228;SDS011;5671;47.936;8.716;2023-06-22T09:27:34;9.73;;;6.13;;
11228;SDS011;5671;47.936;8.716;2023-06-22T09:30:01;12.17;;;5.60;;
11228;SDS011;5671;47.936;8.716;2023-06-22T09:32:28;16.83;;;6.13;;
11228;SDS011;5671;47.936;8.716;2023-06-22T09:34:55;12.20;;;5.53;;
11228;SDS011;5671;47.936;8.716;2023-06-22T09:37:22;11.87;;;5.67;;
11228;SDS011;5671;47.936;8.716;2023-06-22T09:39:49;13.77;;;5.77;;
11228;SDS011;5671;47.936;8.716;2023-06-22T09:42:17;14.47;;;5.57;;
11228;SDS011;5671;47.936;8.716;2023-06-22T09:44:44;12.23;;;5.60;;
11228;SDS011;5671;47.936;8.716;2023-06-22T09:47:10;18.17;;;6.10;;
11228;SDS011;5671;47.936;8.716;2023-06-22T09:49:37;10.67;;;6.67;;
11228;SDS011;5671;47.936;8.716;2023-06-22T09:52:05;13.87;;;6.00;;
11228;SDS011;5671;47.936;8.716;2023-06-22T09:54:32;17.63;;;8.37;;
11228;SDS011;5671;47.936;8.716;2023-06-22T09:56:59;22.40;;;9.33;;
11228;SDS011;5671;47.936;8.716;2023-06-22T09:59:29;20.27;;;7.03;;
11228;SDS011;5671;47.936;8.716;2023-06-22T10:01:56;16.37;;;7.33;;
11228;SDS011;5671;47.936;8.716;2023-06-22T10:04:23;17.10;;;6.63;;
11228;SDS011;5671;47.936;8.716;2023-06-22T10:06:50;10.87;;;7.00;;
11228;SDS011;5671;47.936;8.716;2023-06-22T10:09:17;15.20;;;6.50;;
11228;SDS011;5671;47.936;8.716;2023-06-22T10:11:44;12.77;;;6.10;;
11228;SDS011;5671;47.936;8.716;2023-06-22T10:14:11;11.17;;;6.63;;
11228;SDS011;5671;47.936;8.716;2023-06-22T10:16:39;12.93;;;6.20;;
11228;SDS011;5671;47.936;8.716;2023-06-22T10:19:06;14.83;;;6.37;;
11228;SDS011;5671;47.936;8.716;2023-06-22T10:21:33;9.73;;;5.80;;
11228;SDS011;5671;47.936;8.716;2023-06-22T10:23:59;13.83;;;6.17;;
11228;SDS011;5671;47.936;8.716;2023-06-22T10:26:31;12.00;;;6.50;;
11228;SDS011;5671;47.936;8.716;2023-06-22T10:28:58;12.73;;;5.77;;
11228;SDS011;5671;47.936;8.716;2023-06-22T10:31:25;12.83;;;6.47;;
11228;SDS011;5671;47.936;8.716;2023-06-22T10:33:53;19.73;;;6.70;;
11228;SDS011;5671;47.936;8.716;2023-06-22T10:36:21;10.57;;;6.83;;
11228;SDS011;5671;47.936;8.716;2023-06-22T10:38:48;13.37;;;7.00;;
11228;SDS011;5671;47.936;8.716;2023-06-22T10:41:15;11.87;;;6.90;;
11228;SDS011;5671;47.936;8.716;2023-06-22T10:43:43;15.33;;;7.30;;
11228;SDS011;5671;47.936;8.716;2023-06-22T10:46:09;21.47;;;7.33;;
11228;SDS011;5671;47.936;8.716;2023-06-22T10:48:36;9.83;;;6.80;;
11228;SDS011;5671;47.936;8.716;2023-06-22T10:51:05;11.03;;;7.00;;
11228;SDS011;5671;47.936;8.716;2023-06-22T10:53:31;14.30;;;6.93;;
11228;SDS011;5671;47.936;8.716;2023-06-22T10:55:58;18.03;;;7.13;;
11228;SDS011;5671;47.936;8.716;2023-06-22T10:58:33;13.00;;;6.70;;
11228;SDS011;5671;47.936;8.716;2023-06-22T11:00:59;12.10;;;7.13;;
11228;SDS011;5671;47.936;8.716;2023-06-22T11:03:30;10.73;;;6.70;;
11228;SDS011;5671;47.936;8.716;2023-06-22T11:05:57;10.20;;;6.20;;
11228;SDS011;5671;47.936;8.716;2023-06-22T11:08:25;11.53;;;7.00;;
11228;SDS011;5671;47.936;8.716;2023-06-22T11:10:52;11.90;;;6.40;;
11228;SDS011;5671;47.936;8.716;2023-06-22T11:13:19;18.80;;;7.40;;
11228;SDS011;5671;47.936;8.716;2023-06-22T11:15:46;11.40;;;7.03;;
11228;SDS011;5671;47.936;8.716;2023-06-22T11:18:13;10.67;;;6.67;;
11228;SDS011;5671;47.936;8.716;2023-06-22T11:20:39;10.33;;;6.57;;
11228;SDS011;5671;47.936;8.716;2023-06-22T11:23:06;11.63;;;6.53;;
11228;SDS011;5671;47.936;8.716;2023-06-22T11:25:34;11.93;;;7.13;;
11228;SDS011;5671;47.936;8.716;2023-06-22T11:28:03;10.87;;;6.50;;
11228;SDS011;5671;47.936;8.716;2023-06-22T11:30:30;13.10;;;6.90;;
11228;SDS011;5671;47.936;8.716;2023-06-22T11:32:58;17.27;;;7.20;;
11228;SDS011;5671;47.936;8.716;2023-06-22T11:35:25;12.63;;;6.93;;
11228;SDS011;5671;47.936;8.716;2023-06-22T11:37:52;10.90;;;6.17;;
11228;SDS011;5671;47.936;8.716;2023-06-22T11:40:20;12.57;;;6.60;;
11228;SDS011;5671;47.936;8.716;2023-06-22T11:42:49;13.47;;;6.70;;
11228;SDS011;5671;47.936;8.716;2023-06-22T11:45:16;11.80;;;6.17;;
11228;SDS011;5671;47.936;8.716;2023-06-22T11:47:43;17.80;;;6.57;;
11228;SDS011;5671;47.936;8.716;2023-06-22T11:50:10;11.20;;;6.40;;
11228;SDS011;5671;47.936;8.716;2023-06-22T11:52:37;16.20;;;6.63;;
11228;SDS011;5671;47.936;8.716;2023-06-22T11:55:04;11.33;;;6.70;;
11228;SDS011;5671;47.936;8.716;2023-06-22T11:57:33;9.43;;;6.23;;
11228;SDS011;5671;47.936;8.716;2023-06-22T12:00:01;12.27;;;6.30;;
11228;SDS011;5671;47.936;8.716;2023-06-22T12:02:35;15.53;;;6.33;;
11228;SDS011;5671;47.936;8.716;2023-06-22T12:05:02;11.53;;;6.37;;
11228;SDS011;5671;47.936;8.716;2023-06-22T12:07:30;13.13;;;6.67;;
11228;SDS011;5671;47.936;8.716;2023-06-22T12:09:56;12.87;;;6.07;;
11228;SDS011;5671;47.936;8.716;2023-06-22T12:12:24;14.17;;;6.80;;
11228;SDS011;5671;47.936;8.716;2023-06-22T12:14:50;13.93;;;6.53;;
11228;SDS011;5671;47.936;8.716;2023-06-22T12:17:19;12.73;;;6.27;;
11228;SDS011;5671;47.936;8.716;2023-06-22T12:19:45;10.70;;;6.37;;
11228;SDS011;5671;47.936;8.716;2023-06-22T12:22:12;16.83;;;6.33;;
11228;SDS011;5671;47.936;8.716;2023-06-22T12:24:39;13.00;;;6.23;;
11228;SDS011;5671;47.936;8.716;2023-06-22T12:27:06;13.97;;;6.00;;
11228;SDS011;5671;47.936;8.716;2023-06-22T12:29:33;9.63;;;5.47;;
11228;SDS011;5671;47.936;8.716;2023-06-22T12:32:00;11.67;;;6.13;;
11228;SDS011;5671;47.936;8.716;2023-06-22T12:34:28;11.93;;;6.23;;
11228;SDS011;5671;47.936;8.716;2023-06-22T12:36:55;9.90;;;6.17;;
11228;SDS011;5671;47.936;8.716;2023-06-22T12:39:21;12.57;;;6.07;;
11228;SDS011;5671;47.936;8.716;2023-06-22T12:41:48;13.23;;;5.87;;
11228;SDS011;5671;47.936;8.716;2023-06-22T12:44:15;14.40;;;6.13;;
11228;SDS011;5671;47.936;8.716;2023-06-22T12:46:43;14.47;;;5.53;;
11228;SDS011;5671;47.936;8.716;2023-06-22T12:49:10;12.93;;;5.57;;
11228;SDS011;5671;47.936;8.716;2023-06-22T12:51:40;13.77;;;5.80;;
11228;SDS011;5671;47.936;8.716;2023-06-22T12:54:08;11.03;;;6.07;;
11228;SDS011;5671;47.936;8.716;2023-06-22T12:56:35;12.43;;;5.23;;
11228;SDS011;5671;47.936;8.716;2023-06-22T12:59:02;10.07;;;5.23;;
11228;SDS011;5671;47.936;8.716;2023-06-22T13:01:29;9.63;;;5.43;;
11228;SDS011;5671;47.936;8.716;2023-06-22T13:03:56;11.87;;;5.27;;
11228;SDS011;5671;47.936;8.716;2023-06-22T13:06:23;13.70;;;5.10;;
11228;SDS011;5671;47.936;8.716;2023-06-22T13:08:52;13.73;;;4.93;;
11228;SDS011;5671;47.936;8.716;2023-06-22T13:11:19;9.63;;;4.60;;
11228;SDS011;5671;47.936;8.716;2023-06-22T13:13:46;12.33;;;5.17;;
11228;SDS011;5671;47.936;8.716;2023-06-22T13:16:13;13.63;;;4.83;;
11228;SDS011;5671;47.936;8.716;2023-06-22T13:18:39;12.47;;;4.60;;
11228;SDS011;5671;47.936;8.716;2023-06-22T13:21:07;11.23;;;4.30;;
11228;SDS011;5671;47.936;8.716;2023-06-22T13:23:33;12.03;;;4.43;;
11228;SDS011;5671;47.936;8.716;2023-06-22T13:26:02;15.47;;;4.97;;
11228;SDS011;5671;47.936;8.716;2023-06-22T13:28:29;11.97;;;4.67;;
11228;SDS011;5671;47.936;8.716;2023-06-22T13:30:57;14.00;;;4.90;;
11228;SDS011;5671;47.936;8.716;2023-06-22T13:33:24;14.00;;;4.90;;
11228;SDS011;5671;47.936;8.716;2023-06-22T13:35:51;10.60;;;4.63;;
11228;SDS011;5671;47.936;8.716;2023-06-22T13:38:18;18.03;;;5.17;;
11228;SDS011;5671;47.936;8.716;2023-06-22T13:40:45;9.80;;;4.13;;
11228;SDS011;5671;47.936;8.716;2023-06-22T13:43:14;14.17;;;5.03;;
11228;SDS011;5671;47.936;8.716;2023-06-22T13:45:41;14.37;;;4.30;;
11228;SDS011;5671;47.936;8.716;2023-06-22T13:48:08;15.10;;;4.00;;
11228;SDS011;5671;47.936;8.716;2023-06-22T13:50:36;15.33;;;4.20;;
11228;SDS011;5671;47.936;8.716;2023-06-22T13:53:02;10.47;;;4.43;;
11228;SDS011;5671;47.936;8.716;2023-06-22T13:55:29;10.73;;;3.73;;
11228;SDS011;5671;47.936;8.716;2023-06-22T13:57:56;10.43;;;3.73;;
11228;SDS011;5671;47.936;8.716;2023-06-22T14:00:24;10.30;;;3.47;;
11228;SDS011;5671;47.936;8.716;2023-06-22T14:02:52;15.00;;;4.33;;
11228;SDS011;5671;47.936;8.716;2023-06-22T14:05:19;9.70;;;3.77;;
11228;SDS011;5671;47.936;8.716;2023-06-22T14:07:46;14.77;;;4.23;;
11228;SDS011;5671;47.936;8.716;2023-06-22T14:10:13;12.80;;;3.77;;
11228;SDS011;5671;47.936;8.716;2023-06-22T14:12:40;9.47;;;3.77;;
11228;SDS011;5671;47.936;8.716;2023-06-22T14:15:10;17.10;;;3.93;;
11228;SDS011;5671;47.936;8.716;2023-06-22T14:17:38;11.43;;;4.30;;
11228;SDS011;5671;47.936;8.716;2023-06-22T14:20:05;12.83;;;3.53;;
11228;SDS011;5671;47.936;8.716;2023-06-22T14:22:33;11.27;;;3.73;;
11228;SDS011;5671;47.936;8.716;2023-06-22T14:25:01;8.80;;;3.50;;
11228;SDS011;5671;47.936;8.716;2023-06-22T14:27:31;11.33;;;3.80;;
11228;SDS011;5671;47.936;8.716;2023-06-22T14:29:58;11.03;;;4.00;;
11228;SDS011;5671;47.936;8.716;2023-06-22T14:32:25;9.83;;;3.77;;
11228;SDS011;5671;47.936;8.716;2023-06-22T14:34:56;14.87;;;4.27;;
11228;SDS011;5671;47.936;8.716;2023-06-22T14:37:22;15.33;;;3.90;;
11228;SDS011;5671;47.936;8.716;2023-06-22T14:39:50;14.17;;;3.87;;
11228;SDS011;5671;47.936;8.716;2023-06-22T14:42:16;14.30;;;3.90;;
11228;SDS011;5671;47.936;8.716;2023-06-22T14:44:43;9.90;;;3.53;;
11228;SDS011;5671;47.936;8.716;2023-06-22T14:47:10;10.50;;;3.80;;
11228;SDS011;5671;47.936;8.716;2023-06-22T14:49:37;12.67;;;3.83;;
11228;SDS011;5671;47.936;8.716;2023-06-22T14:52:05;9.67;;;4.30;;
11228;SDS011;5671;47.936;8.716;2023-06-22T14:54:33;15.37;;;4.47;;
11228;SDS011;5671;47.936;8.716;2023-06-22T14:57:00;9.50;;;3.67;;